<?xml version='1.0' encoding='UTF-8'?><gpx version="1.1" creator="JPX - https://github.com/jenetics/jpx" xmlns="http://www.topografix.com/GPX/1/1"><trk><trkseg><trkpt lat="43.29537791539829" lon="10.797134907512499"><ele>184.0</ele><time>2026-03-26T11:44:29Z</time></trkpt><trkpt lat="43.29544694473167" lon="10.79712013444366"><ele>184.0</ele><time>2026-03-26T11:44:35Z</time></trkpt><trkpt lat="43.2955243453028" lon="10.797094952824134"><ele>184.0</ele><time>2026-03-26T11:44:41Z</time></trkpt><trkpt lat="43.29558858212649" lon="10.797096958291453"><ele>184.0</ele><time>2026-03-26T11:44:49Z</time></trkpt><trkpt lat="43.295655578023" lon="10.797113301585593"><ele>184.0</ele><time>2026-03-26T11:44:54Z</time></trkpt><trkpt lat="43.29573043380932" lon="10.797123337799524"><ele>184.0</ele><time>2026-03-26T11:45:01Z</time></trkpt><trkpt lat="43.29580221256762" lon="10.797146402880864"><ele>184.0</ele><time>2026-03-26T11:45:08Z</time></trkpt><trkpt lat="43.295870289594646" lon="10.79717410495569"><ele>182.85714285714286</ele><time>2026-03-26T11:45:14Z</time></trkpt><trkpt lat="43.29593138964548" lon="10.797203397026234"><ele>181.7142857142857</ele><time>2026-03-26T11:45:21Z</time></trkpt><trkpt lat="43.29598267445987" lon="10.797261949362747"><ele>180.57142857142856</ele><time>2026-03-26T11:45:27Z</time></trkpt><trkpt lat="43.296027523754404" lon="10.797341685442792"><ele>179.42857142857144</ele><time>2026-03-26T11:45:33Z</time></trkpt><trkpt lat="43.296020234924434" lon="10.797433315371082"><ele>178.28571428571428</ele><time>2026-03-26T11:45:37Z</time></trkpt><trkpt lat="43.29600376318979" lon="10.797531003931274"><ele>177.14285714285714</ele><time>2026-03-26T11:45:43Z</time></trkpt><trkpt lat="43.29598315807151" lon="10.797625091314574"><ele>176.0</ele><time>2026-03-26T11:45:51Z</time></trkpt><trkpt lat="43.29598140427176" lon="10.797733831454424"><ele>175.0</ele><time>2026-03-26T11:45:58Z</time></trkpt><trkpt lat="43.296009477874726" lon="10.79782231440681"><ele>174.0</ele><time>2026-03-26T11:46:04Z</time></trkpt><trkpt lat="43.296064299617306" lon="10.797882737605144"><ele>173.0</ele><time>2026-03-26T11:46:11Z</time></trkpt><trkpt lat="43.29611002556009" lon="10.797945200084992"><ele>172.0</ele><time>2026-03-26T11:46:16.999Z</time></trkpt><trkpt lat="43.296156883339485" lon="10.79800575702816"><ele>171.0</ele><time>2026-03-26T11:46:25Z</time></trkpt><trkpt lat="43.29620509703388" lon="10.798078541675997"><ele>170.0</ele><time>2026-03-26T11:46:33Z</time></trkpt><trkpt lat="43.29624659722907" lon="10.798156396620007"><ele>169.0</ele><time>2026-03-26T11:46:38Z</time></trkpt><trkpt lat="43.29629100908471" lon="10.798217996826597"><ele>169.0</ele><time>2026-03-26T11:46:44Z</time></trkpt><trkpt lat="43.29635754465059" lon="10.798247298509356"><ele>169.0</ele><time>2026-03-26T11:46:52Z</time></trkpt><trkpt lat="43.29641818629788" lon="10.798203831280906"><ele>169.0</ele><time>2026-03-26T11:47:00Z</time></trkpt><trkpt lat="43.29641426246909" lon="10.79810860589557"><ele>169.0</ele><time>2026-03-26T11:47:06Z</time></trkpt><trkpt lat="43.29638936972621" lon="10.798022891568564"><ele>169.0</ele><time>2026-03-26T11:47:11Z</time></trkpt><trkpt lat="43.29634264961951" lon="10.79796329872109"><ele>169.0</ele><time>2026-03-26T11:47:17Z</time></trkpt><trkpt lat="43.29630449256404" lon="10.797881309484643"><ele>169.0</ele><time>2026-03-26T11:47:23Z</time></trkpt><trkpt lat="43.29624868277896" lon="10.797806016651432"><ele>169.0</ele><time>2026-03-26T11:47:31Z</time></trkpt><trkpt lat="43.29624918076425" lon="10.797712206392243"><ele>169.0</ele><time>2026-03-26T11:47:39Z</time></trkpt><trkpt lat="43.296320948540654" lon="10.797684640351278"><ele>169.0</ele><time>2026-03-26T11:47:48Z</time></trkpt><trkpt lat="43.296385110266435" lon="10.797711079735317"><ele>169.0</ele><time>2026-03-26T11:47:56Z</time></trkpt><trkpt lat="43.296447135956306" lon="10.797739069328422"><ele>169.0</ele><time>2026-03-26T11:48:04Z</time></trkpt><trkpt lat="43.29651403619372" lon="10.797776098292948"><ele>169.0</ele><time>2026-03-26T11:48:11.999Z</time></trkpt><trkpt lat="43.29657478997178" lon="10.79780549058431"><ele>169.0</ele><time>2026-03-26T11:48:25.999Z</time></trkpt><trkpt lat="43.296620850641204" lon="10.797874594540302"><ele>166.85714285714286</ele><time>2026-03-26T11:48:34Z</time></trkpt><trkpt lat="43.29666620776375" lon="10.797937660046884"><ele>164.71428571428572</ele><time>2026-03-26T11:48:41Z</time></trkpt><trkpt lat="43.29667959521828" lon="10.798037055379305"><ele>162.57142857142856</ele><time>2026-03-26T11:48:46Z</time></trkpt><trkpt lat="43.296682918286685" lon="10.798127994888517"><ele>160.42857142857144</ele><time>2026-03-26T11:48:52Z</time></trkpt><trkpt lat="43.29667841421699" lon="10.79822905429504"><ele>158.28571428571428</ele><time>2026-03-26T11:48:58Z</time></trkpt><trkpt lat="43.29666371779198" lon="10.79832148653466"><ele>156.14285714285714</ele><time>2026-03-26T11:49:04Z</time></trkpt><trkpt lat="43.296664639284565" lon="10.798421402163472"><ele>154.0</ele><time>2026-03-26T11:49:11Z</time></trkpt><trkpt lat="43.29665914871052" lon="10.798528081504145"><ele>154.57142857142858</ele><time>2026-03-26T11:49:17Z</time></trkpt><trkpt lat="43.29663524136986" lon="10.798616890348445"><ele>155.14285714285714</ele><time>2026-03-26T11:49:24Z</time></trkpt><trkpt lat="43.2966045472779" lon="10.798707570385798"><ele>155.71428571428572</ele><time>2026-03-26T11:49:30Z</time></trkpt><trkpt lat="43.2965526385931" lon="10.798766020736663"><ele>156.28571428571428</ele><time>2026-03-26T11:49:36Z</time></trkpt><trkpt lat="43.2964813296308" lon="10.798787912000645"><ele>156.85714285714286</ele><time>2026-03-26T11:49:43Z</time></trkpt><trkpt lat="43.29641663221954" lon="10.798769562032696"><ele>157.42857142857144</ele><time>2026-03-26T11:49:49Z</time></trkpt><trkpt lat="43.29634989814773" lon="10.798771048571792"><ele>158.0</ele><time>2026-03-26T11:49:54Z</time></trkpt><trkpt lat="43.29628024162027" lon="10.79874464245166"><ele>158.00000000000003</ele><time>2026-03-26T11:50:00Z</time></trkpt><trkpt lat="43.29621999223154" lon="10.798715612338142"><ele>158.0</ele><time>2026-03-26T11:50:05.999Z</time></trkpt><trkpt lat="43.29615054429348" lon="10.798663427029298"><ele>158.0</ele><time>2026-03-26T11:50:13.999Z</time></trkpt><trkpt lat="43.296103400066485" lon="10.798603896752219"><ele>158.0</ele><time>2026-03-26T11:50:20.999Z</time></trkpt><trkpt lat="43.296044189366995" lon="10.798544912932242"><ele>158.0</ele><time>2026-03-26T11:50:36Z</time></trkpt><trkpt lat="43.29597507028162" lon="10.798538327581513"><ele>158.00000000000003</ele><time>2026-03-26T11:50:41Z</time></trkpt><trkpt lat="43.29593590836526" lon="10.798454961862294"><ele>158.0</ele><time>2026-03-26T11:50:52Z</time></trkpt><trkpt lat="43.29591466019693" lon="10.79836847232108"><ele>158.00000000000003</ele><time>2026-03-26T11:50:58Z</time></trkpt><trkpt lat="43.29588079591682" lon="10.798288430108002"><ele>158.0</ele><time>2026-03-26T11:51:05Z</time></trkpt><trkpt lat="43.29582100546513" lon="10.798243907333235"><ele>158.0</ele><time>2026-03-26T11:51:11Z</time></trkpt><trkpt lat="43.295755635515086" lon="10.79824815092144"><ele>158.0</ele><time>2026-03-26T11:51:18Z</time></trkpt><trkpt lat="43.29574080141665" lon="10.798342504176889"><ele>158.0</ele><time>2026-03-26T11:51:29Z</time></trkpt><trkpt lat="43.29577212699927" lon="10.798435711554061"><ele>158.00000000000003</ele><time>2026-03-26T11:51:35Z</time></trkpt><trkpt lat="43.29580753650038" lon="10.798507853252556"><ele>158.0</ele><time>2026-03-26T11:51:40Z</time></trkpt><trkpt lat="43.295839135425545" lon="10.79858448635705"><ele>158.00000000000003</ele><time>2026-03-26T11:51:45Z</time></trkpt><trkpt lat="43.295863516089526" lon="10.798668083750762"><ele>158.0</ele><time>2026-03-26T11:51:52Z</time></trkpt><trkpt lat="43.29588531263212" lon="10.798755533318078"><ele>158.0</ele><time>2026-03-26T11:51:58Z</time></trkpt><trkpt lat="43.29587718092945" lon="10.7988599402054"><ele>158.0</ele><time>2026-03-26T11:52:03.999Z</time></trkpt><trkpt lat="43.29591143983475" lon="10.798947295581705"><ele>158.0</ele><time>2026-03-26T11:52:11.999Z</time></trkpt><trkpt lat="43.29594258380068" lon="10.799038588750172"><ele>158.00000000000003</ele><time>2026-03-26T11:52:17.999Z</time></trkpt><trkpt lat="43.2960082524656" lon="10.799078238008425"><ele>158.0</ele><time>2026-03-26T11:52:26.999Z</time></trkpt><trkpt lat="43.29607759593515" lon="10.7990917462622"><ele>158.00000000000003</ele><time>2026-03-26T11:52:32.999Z</time></trkpt><trkpt lat="43.296153879555" lon="10.79911223498041"><ele>158.0</ele><time>2026-03-26T11:52:38.999Z</time></trkpt><trkpt lat="43.29622294448764" lon="10.799130301538442"><ele>158.0</ele><time>2026-03-26T11:52:45Z</time></trkpt><trkpt lat="43.29628527914553" lon="10.799153286453736"><ele>158.0</ele><time>2026-03-26T11:52:51Z</time></trkpt><trkpt lat="43.296348112054375" lon="10.799180113388049"><ele>158.0</ele><time>2026-03-26T11:52:57Z</time></trkpt><trkpt lat="43.29641243782784" lon="10.799167337725928"><ele>158.00000000000003</ele><time>2026-03-26T11:53:09Z</time></trkpt><trkpt lat="43.29641645176263" lon="10.799254251067133"><ele>158.0</ele><time>2026-03-26T11:53:16Z</time></trkpt><trkpt lat="43.296394936130305" lon="10.799346306729092"><ele>156.14285714285717</ele><time>2026-03-26T11:53:22Z</time></trkpt><trkpt lat="43.29632988621425" lon="10.799369495268886"><ele>154.28571428571428</ele><time>2026-03-26T11:53:28Z</time></trkpt><trkpt lat="43.29626680466525" lon="10.799374326656125"><ele>152.42857142857144</ele><time>2026-03-26T11:53:34Z</time></trkpt><trkpt lat="43.29620324059649" lon="10.799374511112337"><ele>150.57142857142858</ele><time>2026-03-26T11:53:40Z</time></trkpt><trkpt lat="43.29612811061154" lon="10.799358873535377"><ele>148.71428571428572</ele><time>2026-03-26T11:53:46Z</time></trkpt><trkpt lat="43.296065383729484" lon="10.799404767042404"><ele>146.85714285714286</ele><time>2026-03-26T11:53:53Z</time></trkpt><trkpt lat="43.29603136937465" lon="10.799484076845069"><ele>145.0</ele><time>2026-03-26T11:54:00Z</time></trkpt><trkpt lat="43.29605607402597" lon="10.799565259099275"><ele>145.0</ele><time>2026-03-26T11:55:34Z</time></trkpt><trkpt lat="43.29607960255587" lon="10.799651600937699"><ele>145.0</ele><time>2026-03-26T11:55:41Z</time></trkpt><trkpt lat="43.296100316888264" lon="10.799748758204494"><ele>145.0</ele><time>2026-03-26T11:55:47Z</time></trkpt><trkpt lat="43.29610096100471" lon="10.799836833612469"><ele>145.0</ele><time>2026-03-26T11:55:53.999Z</time></trkpt><trkpt lat="43.296094074387" lon="10.79993432245071"><ele>145.0</ele><time>2026-03-26T11:56:00.999Z</time></trkpt><trkpt lat="43.296067493981106" lon="10.800013209100065"><ele>145.0</ele><time>2026-03-26T11:56:08.999Z</time></trkpt><trkpt lat="43.296023567761566" lon="10.800077079333642"><ele>145.0</ele><time>2026-03-26T11:56:13.999Z</time></trkpt><trkpt lat="43.29598505785463" lon="10.800148458978189"><ele>142.85714285714286</ele><time>2026-03-26T11:56:19.999Z</time></trkpt><trkpt lat="43.29594527226923" lon="10.800225544621675"><ele>140.71428571428572</ele><time>2026-03-26T11:56:26.999Z</time></trkpt><trkpt lat="43.2959182116699" lon="10.800316067032044"><ele>138.57142857142858</ele><time>2026-03-26T11:56:35.999Z</time></trkpt><trkpt lat="43.29592311675287" lon="10.800407346232895"><ele>136.42857142857144</ele><time>2026-03-26T11:56:39.999Z</time></trkpt><trkpt lat="43.29593254000406" lon="10.800505021237605"><ele>134.28571428571428</ele><time>2026-03-26T11:56:44.999Z</time></trkpt><trkpt lat="43.29596853296523" lon="10.800581463168172"><ele>132.14285714285717</ele><time>2026-03-26T11:56:49.999Z</time></trkpt><trkpt lat="43.296000227034384" lon="10.800661611109797"><ele>130.0</ele><time>2026-03-26T11:56:55Z</time></trkpt><trkpt lat="43.2960747611896" lon="10.800653457401392"><ele>130.00000000000003</ele><time>2026-03-26T11:57:00Z</time></trkpt><trkpt lat="43.296110844325646" lon="10.80057198900848"><ele>130.0</ele><time>2026-03-26T11:57:18Z</time></trkpt><trkpt lat="43.296167772598" lon="10.800515937699265"><ele>130.0</ele><time>2026-03-26T11:57:24Z</time></trkpt><trkpt lat="43.29621826469286" lon="10.800449109520867"><ele>130.0</ele><time>2026-03-26T11:57:31Z</time></trkpt><trkpt lat="43.29625699924319" lon="10.800369787565005"><ele>130.0</ele><time>2026-03-26T11:57:36Z</time></trkpt><trkpt lat="43.29629601192641" lon="10.800291905515753"><ele>130.00000000000003</ele><time>2026-03-26T11:57:43Z</time></trkpt><trkpt lat="43.29631180844833" lon="10.80020741984298"><ele>130.0</ele><time>2026-03-26T11:57:46.999Z</time></trkpt><trkpt lat="43.296316565462334" lon="10.800117780989874"><ele>131.85714285714286</ele><time>2026-03-26T11:57:53.999Z</time></trkpt><trkpt lat="43.29632211414793" lon="10.8000304068769"><ele>133.71428571428572</ele><time>2026-03-26T11:58:02.999Z</time></trkpt><trkpt lat="43.29632204115161" lon="10.799942678582532"><ele>135.57142857142856</ele><time>2026-03-26T11:58:11.999Z</time></trkpt><trkpt lat="43.296318878516246" lon="10.799845757039321"><ele>137.42857142857144</ele><time>2026-03-26T11:58:20.999Z</time></trkpt><trkpt lat="43.296331323496766" lon="10.799751530206215"><ele>139.28571428571428</ele><time>2026-03-26T11:58:28.999Z</time></trkpt><trkpt lat="43.296356304753104" lon="10.799671324026399"><ele>141.14285714285714</ele><time>2026-03-26T11:58:35.999Z</time></trkpt><trkpt lat="43.29640781501278" lon="10.799606517246161"><ele>143.0</ele><time>2026-03-26T11:58:42.999Z</time></trkpt><trkpt lat="43.29647533455854" lon="10.799604230674131"><ele>142.99999999999997</ele><time>2026-03-26T11:59:02Z</time></trkpt><trkpt lat="43.296536345761346" lon="10.799659201514931"><ele>143.0</ele><time>2026-03-26T11:59:08Z</time></trkpt><trkpt lat="43.29653040251465" lon="10.799763598130168"><ele>143.0</ele><time>2026-03-26T11:59:14Z</time></trkpt><trkpt lat="43.29653240078644" lon="10.799864962632919"><ele>143.0</ele><time>2026-03-26T11:59:22Z</time></trkpt><trkpt lat="43.29651433402261" lon="10.79996179659384"><ele>143.0</ele><time>2026-03-26T11:59:28Z</time></trkpt><trkpt lat="43.29650792017049" lon="10.800049331471014"><ele>142.99999999999997</ele><time>2026-03-26T11:59:32Z</time></trkpt><trkpt lat="43.29650066123031" lon="10.800142062845193"><ele>143.0</ele><time>2026-03-26T11:59:37Z</time></trkpt><trkpt lat="43.29654160060506" lon="10.80020987369655"><ele>142.99999999999997</ele><time>2026-03-26T11:59:51Z</time></trkpt><trkpt lat="43.296610591409596" lon="10.80021342848762"><ele>143.0</ele><time>2026-03-26T11:59:58Z</time></trkpt><trkpt lat="43.296643976171765" lon="10.800125346830741"><ele>143.0</ele><time>2026-03-26T12:00:05Z</time></trkpt><trkpt lat="43.29667260140935" lon="10.800031898713904"><ele>143.0</ele><time>2026-03-26T12:00:11.999Z</time></trkpt><trkpt lat="43.296696323335134" lon="10.799942861273722"><ele>143.0</ele><time>2026-03-26T12:00:18.999Z</time></trkpt><trkpt lat="43.296719096364555" lon="10.79986065530603"><ele>142.99999999999997</ele><time>2026-03-26T12:00:25.999Z</time></trkpt><trkpt lat="43.296749113626" lon="10.799784064142859"><ele>143.0</ele><time>2026-03-26T12:00:31.999Z</time></trkpt><trkpt lat="43.296770421855314" lon="10.79970002184956"><ele>142.99999999999997</ele><time>2026-03-26T12:00:38.999Z</time></trkpt><trkpt lat="43.296834392744664" lon="10.799691304854102"><ele>143.0</ele><time>2026-03-26T12:00:45.999Z</time></trkpt><trkpt lat="43.29685245960575" lon="10.79977698878532"><ele>143.0</ele><time>2026-03-26T12:00:51.999Z</time></trkpt><trkpt lat="43.2968373127774" lon="10.799861609034162"><ele>143.0</ele><time>2026-03-26T12:00:56.999Z</time></trkpt><trkpt lat="43.29682775644906" lon="10.799959757540218"><ele>143.0</ele><time>2026-03-26T12:01:02.999Z</time></trkpt><trkpt lat="43.29682719786774" lon="10.80004783939007"><ele>142.99999999999997</ele><time>2026-03-26T12:01:09Z</time></trkpt><trkpt lat="43.2968783403291" lon="10.80010393689349"><ele>143.0</ele><time>2026-03-26T12:01:14Z</time></trkpt><trkpt lat="43.29693623694509" lon="10.800067071623054"><ele>142.99999999999997</ele><time>2026-03-26T12:01:32Z</time></trkpt><trkpt lat="43.29700958473734" lon="10.800050319026493"><ele>143.0</ele><time>2026-03-26T12:02:06Z</time></trkpt><trkpt lat="43.29708642077487" lon="10.80004506707032"><ele>143.0</ele><time>2026-03-26T12:02:17.999Z</time></trkpt><trkpt lat="43.297151054567806" lon="10.800093008548851"><ele>143.0</ele><time>2026-03-26T12:02:22.999Z</time></trkpt><trkpt lat="43.297155994841155" lon="10.80019553304517"><ele>143.0</ele><time>2026-03-26T12:02:26.999Z</time></trkpt><trkpt lat="43.297130043855354" lon="10.800275925305286"><ele>142.99999999999997</ele><time>2026-03-26T12:02:32.999Z</time></trkpt><trkpt lat="43.297187988331544" lon="10.800334052910081"><ele>143.0</ele><time>2026-03-26T12:02:49.999Z</time></trkpt><trkpt lat="43.29719883060497" lon="10.800434613731536"><ele>141.42857142857142</ele><time>2026-03-26T12:02:54.999Z</time></trkpt><trkpt lat="43.29717504761506" lon="10.800534540121234"><ele>139.85714285714286</ele><time>2026-03-26T12:03:02.999Z</time></trkpt><trkpt lat="43.297144808831746" lon="10.800613922208731"><ele>138.28571428571428</ele><time>2026-03-26T12:03:07.999Z</time></trkpt><trkpt lat="43.29717458680253" lon="10.800697131499"><ele>136.71428571428572</ele><time>2026-03-26T12:03:14Z</time></trkpt><trkpt lat="43.297200327511355" lon="10.800783115264144"><ele>135.14285714285714</ele><time>2026-03-26T12:03:18Z</time></trkpt><trkpt lat="43.297220145314725" lon="10.80088129668089"><ele>133.57142857142856</ele><time>2026-03-26T12:03:24Z</time></trkpt><trkpt lat="43.29721704963371" lon="10.800970242646732"><ele>132.0</ele><time>2026-03-26T12:03:36Z</time></trkpt><trkpt lat="43.297158655634874" lon="10.801004341088216"><ele>132.0</ele><time>2026-03-26T12:04:17.999Z</time></trkpt><trkpt lat="43.297104971774395" lon="10.801071964484887"><ele>132.0</ele><time>2026-03-26T12:04:24.999Z</time></trkpt><trkpt lat="43.29705231202539" lon="10.801002952056287"><ele>132.0</ele><time>2026-03-26T12:04:47.999Z</time></trkpt><trkpt lat="43.2969934223841" lon="10.800949641570574"><ele>132.0</ele><time>2026-03-26T12:04:51.999Z</time></trkpt><trkpt lat="43.296931175154036" lon="10.800991684970091"><ele>132.0</ele><time>2026-03-26T12:05:10.999Z</time></trkpt><trkpt lat="43.29691901895212" lon="10.801076990612545"><ele>132.0</ele><time>2026-03-26T12:05:23Z</time></trkpt><trkpt lat="43.29692231569566" lon="10.801174487507893"><ele>132.0</ele><time>2026-03-26T12:05:43Z</time></trkpt><trkpt lat="43.296950476938946" lon="10.80125694388786"><ele>130.28571428571428</ele><time>2026-03-26T12:05:57Z</time></trkpt><trkpt lat="43.296939522318674" lon="10.801344080496987"><ele>128.57142857142858</ele><time>2026-03-26T12:06:43.999Z</time></trkpt><trkpt lat="43.296936416710565" lon="10.801439924362784"><ele>126.85714285714286</ele><time>2026-03-26T12:06:47.999Z</time></trkpt><trkpt lat="43.29692147790523" lon="10.801537126215363"><ele>125.14285714285714</ele><time>2026-03-26T12:06:53.999Z</time></trkpt><trkpt lat="43.29688786091033" lon="10.801613477130646"><ele>123.42857142857142</ele><time>2026-03-26T12:07:01.999Z</time></trkpt><trkpt lat="43.29685606065127" lon="10.801692370156834"><ele>121.71428571428572</ele><time>2026-03-26T12:07:07.999Z</time></trkpt><trkpt lat="43.2968069544627" lon="10.80176675410148"><ele>120.0</ele><time>2026-03-26T12:07:12.999Z</time></trkpt><trkpt lat="43.296746986580324" lon="10.801813579479223"><ele>120.0</ele><time>2026-03-26T12:07:17.999Z</time></trkpt><trkpt lat="43.296680758606364" lon="10.801766426247706"><ele>120.0</ele><time>2026-03-26T12:07:24Z</time></trkpt><trkpt lat="43.2966881039079" lon="10.80166635559727"><ele>120.0</ele><time>2026-03-26T12:07:30Z</time></trkpt><trkpt lat="43.29669440740677" lon="10.801579366781828"><ele>120.0</ele><time>2026-03-26T12:07:36Z</time></trkpt><trkpt lat="43.29671066885909" lon="10.801489074282749"><ele>120.0</ele><time>2026-03-26T12:07:42Z</time></trkpt><trkpt lat="43.296714974363994" lon="10.801399221316249"><ele>120.0</ele><time>2026-03-26T12:07:50Z</time></trkpt><trkpt lat="43.29672896273679" lon="10.801310652330738"><ele>120.0</ele><time>2026-03-26T12:07:56Z</time></trkpt><trkpt lat="43.29675006633486" lon="10.801228687683675"><ele>120.0</ele><time>2026-03-26T12:08:05Z</time></trkpt><trkpt lat="43.29673651332981" lon="10.80114376757262"><ele>120.0</ele><time>2026-03-26T12:08:15Z</time></trkpt><trkpt lat="43.29674415857829" lon="10.801048914610362"><ele>120.0</ele><time>2026-03-26T12:08:25Z</time></trkpt><trkpt lat="43.29674454466306" lon="10.800954283302744"><ele>120.0</ele><time>2026-03-26T12:08:34Z</time></trkpt><trkpt lat="43.29675443381456" lon="10.800864229419814"><ele>120.0</ele><time>2026-03-26T12:08:39.999Z</time></trkpt><trkpt lat="43.29674127301308" lon="10.800773358287984"><ele>120.0</ele><time>2026-03-26T12:08:48.999Z</time></trkpt><trkpt lat="43.29669491096173" lon="10.800713618905153"><ele>120.0</ele><time>2026-03-26T12:08:54.999Z</time></trkpt><trkpt lat="43.29662850329807" lon="10.800746252130152"><ele>120.0</ele><time>2026-03-26T12:09:03.999Z</time></trkpt><trkpt lat="43.29659152994398" lon="10.800830718527264"><ele>120.0</ele><time>2026-03-26T12:09:10.999Z</time></trkpt><trkpt lat="43.29659196610306" lon="10.800930472978006"><ele>120.0</ele><time>2026-03-26T12:09:15.999Z</time></trkpt><trkpt lat="43.296568745547624" lon="10.801022182094584"><ele>120.0</ele><time>2026-03-26T12:09:35Z</time></trkpt><trkpt lat="43.296557275718754" lon="10.801107816237275"><ele>120.0</ele><time>2026-03-26T12:09:47Z</time></trkpt><trkpt lat="43.296549035098145" lon="10.801206782785563"><ele>120.0</ele><time>2026-03-26T12:09:55Z</time></trkpt><trkpt lat="43.29655449441618" lon="10.801293659439477"><ele>120.0</ele><time>2026-03-26T12:10:02Z</time></trkpt><trkpt lat="43.29654636470767" lon="10.801385110777638"><ele>120.0</ele><time>2026-03-26T12:10:08Z</time></trkpt><trkpt lat="43.29654101632034" lon="10.801474498258623"><ele>120.0</ele><time>2026-03-26T12:10:13Z</time></trkpt><trkpt lat="43.2965174526977" lon="10.801559892455474"><ele>120.0</ele><time>2026-03-26T12:10:17Z</time></trkpt><trkpt lat="43.296485948473304" lon="10.801648530106082"><ele>120.0</ele><time>2026-03-26T12:10:22Z</time></trkpt><trkpt lat="43.2964208430928" lon="10.80167696700935"><ele>120.0</ele><time>2026-03-26T12:10:28Z</time></trkpt><trkpt lat="43.29638039080442" lon="10.801604376928394"><ele>120.0</ele><time>2026-03-26T12:10:33Z</time></trkpt><trkpt lat="43.29637539882785" lon="10.80150532658821"><ele>120.0</ele><time>2026-03-26T12:10:37.999Z</time></trkpt><trkpt lat="43.296373692245915" lon="10.801402981386921"><ele>120.0</ele><time>2026-03-26T12:10:44.999Z</time></trkpt><trkpt lat="43.29638050847616" lon="10.801312517916584"><ele>120.0</ele><time>2026-03-26T12:10:51.999Z</time></trkpt><trkpt lat="43.29640132455636" lon="10.801220294079277"><ele>120.0</ele><time>2026-03-26T12:10:57.999Z</time></trkpt><trkpt lat="43.296400894519124" lon="10.801116391152956"><ele>120.0</ele><time>2026-03-26T12:11:04.999Z</time></trkpt><trkpt lat="43.296402807754816" lon="10.801019505864911"><ele>120.0</ele><time>2026-03-26T12:11:11.999Z</time></trkpt><trkpt lat="43.29641169258908" lon="10.800925596318635"><ele>120.0</ele><time>2026-03-26T12:11:18.999Z</time></trkpt><trkpt lat="43.29643678926705" lon="10.800841340745963"><ele>120.0</ele><time>2026-03-26T12:11:27.999Z</time></trkpt><trkpt lat="43.29644808830623" lon="10.800754453833148"><ele>121.42857142857143</ele><time>2026-03-26T12:11:36Z</time></trkpt><trkpt lat="43.29644677814866" lon="10.800665297348393"><ele>122.85714285714286</ele><time>2026-03-26T12:11:45Z</time></trkpt><trkpt lat="43.29640619595654" lon="10.800577268367343"><ele>124.28571428571429</ele><time>2026-03-26T12:11:57Z</time></trkpt><trkpt lat="43.29633920025239" lon="10.800601567286778"><ele>125.71428571428572</ele><time>2026-03-26T12:12:10Z</time></trkpt><trkpt lat="43.296333483614816" lon="10.8006919676758"><ele>127.14285714285714</ele><time>2026-03-26T12:12:16Z</time></trkpt><trkpt lat="43.29630938825192" lon="10.800773528615325"><ele>128.57142857142858</ele><time>2026-03-26T12:12:22Z</time></trkpt><trkpt lat="43.2962924804157" lon="10.800865150153115"><ele>130.0</ele><time>2026-03-26T12:12:28Z</time></trkpt><trkpt lat="43.29624687800141" lon="10.800929989223993"><ele>130.00000000000003</ele><time>2026-03-26T12:12:39.999Z</time></trkpt><trkpt lat="43.29620544360917" lon="10.800997833802821"><ele>130.0</ele><time>2026-03-26T12:12:44.999Z</time></trkpt><trkpt lat="43.29615170104261" lon="10.801060116765004"><ele>130.0</ele><time>2026-03-26T12:12:52.999Z</time></trkpt><trkpt lat="43.296093677756886" lon="10.801112378387042"><ele>130.0</ele><time>2026-03-26T12:13:06.999Z</time></trkpt><trkpt lat="43.296047278822755" lon="10.801200770587398"><ele>130.0</ele><time>2026-03-26T12:13:17.999Z</time></trkpt><trkpt lat="43.29599848200177" lon="10.801276293562648"><ele>130.00000000000003</ele><time>2026-03-26T12:13:24.999Z</time></trkpt><trkpt lat="43.2959566975898" lon="10.801351332458035"><ele>130.0</ele><time>2026-03-26T12:13:30.999Z</time></trkpt><trkpt lat="43.29592881532338" lon="10.801433037625204"><ele>128.57142857142858</ele><time>2026-03-26T12:13:36.999Z</time></trkpt><trkpt lat="43.29596186132252" lon="10.801515839824962"><ele>127.14285714285714</ele><time>2026-03-26T12:13:43Z</time></trkpt><trkpt lat="43.29601443717501" lon="10.801567016325606"><ele>125.71428571428572</ele><time>2026-03-26T12:13:49Z</time></trkpt><trkpt lat="43.296075817280524" lon="10.801601716219347"><ele>124.28571428571429</ele><time>2026-03-26T12:13:55Z</time></trkpt><trkpt lat="43.2961371705474" lon="10.801639148616523"><ele>122.85714285714286</ele><time>2026-03-26T12:14:01Z</time></trkpt><trkpt lat="43.296183881269855" lon="10.801699356796686"><ele>121.42857142857143</ele><time>2026-03-26T12:14:07Z</time></trkpt><trkpt lat="43.296204513319715" lon="10.801798537385494"><ele>120.0</ele><time>2026-03-26T12:14:14Z</time></trkpt><trkpt lat="43.296157153460285" lon="10.801868540844938"><ele>119.57142857142858</ele><time>2026-03-26T12:14:20Z</time></trkpt><trkpt lat="43.29608357145533" lon="10.801862376830398"><ele>119.14285714285714</ele><time>2026-03-26T12:14:27Z</time></trkpt><trkpt lat="43.2960199735211" lon="10.801835929405442"><ele>118.71428571428572</ele><time>2026-03-26T12:14:33Z</time></trkpt><trkpt lat="43.29594372906228" lon="10.801836253958456"><ele>118.28571428571429</ele><time>2026-03-26T12:14:39Z</time></trkpt><trkpt lat="43.295882674222156" lon="10.80188748443912"><ele>117.85714285714286</ele><time>2026-03-26T12:14:45.999Z</time></trkpt><trkpt lat="43.29585606822046" lon="10.80198082027518"><ele>117.42857142857143</ele><time>2026-03-26T12:14:51.999Z</time></trkpt><trkpt lat="43.29587615742949" lon="10.802067234318896"><ele>117.0</ele><time>2026-03-26T12:15:20.999Z</time></trkpt><trkpt lat="43.29592584407529" lon="10.802136501719083"><ele>117.0</ele><time>2026-03-26T12:15:27.999Z</time></trkpt><trkpt lat="43.29598081569896" lon="10.80219492315323"><ele>117.00000000000001</ele><time>2026-03-26T12:15:33.999Z</time></trkpt><trkpt lat="43.296049806887495" lon="10.802222540477082"><ele>117.0</ele><time>2026-03-26T12:15:39.999Z</time></trkpt><trkpt lat="43.29611409125625" lon="10.802225981828549"><ele>117.0</ele><time>2026-03-26T12:15:45.999Z</time></trkpt><trkpt lat="43.296183269371234" lon="10.802218716530385"><ele>117.00000000000001</ele><time>2026-03-26T12:15:53Z</time></trkpt><trkpt lat="43.29624380113314" lon="10.802191393314828"><ele>117.0</ele><time>2026-03-26T12:15:59Z</time></trkpt><trkpt lat="43.29630537368844" lon="10.80216919605305"><ele>117.0</ele><time>2026-03-26T12:16:05Z</time></trkpt><trkpt lat="43.29636827612502" lon="10.802143560012333"><ele>116.85714285714286</ele><time>2026-03-26T12:16:11Z</time></trkpt><trkpt lat="43.29643038724302" lon="10.802102259054609"><ele>116.71428571428572</ele><time>2026-03-26T12:16:18Z</time></trkpt><trkpt lat="43.296497790800146" lon="10.802073146429064"><ele>116.57142857142858</ele><time>2026-03-26T12:16:25Z</time></trkpt><trkpt lat="43.29656877758657" lon="10.802061781669817"><ele>116.42857142857144</ele><time>2026-03-26T12:16:31Z</time></trkpt><trkpt lat="43.296642031602566" lon="10.80207910425537"><ele>116.28571428571429</ele><time>2026-03-26T12:16:37Z</time></trkpt><trkpt lat="43.2966963804796" lon="10.80214247559776"><ele>116.14285714285717</ele><time>2026-03-26T12:16:46Z</time></trkpt><trkpt lat="43.29669117009473" lon="10.802238370399786"><ele>116.00000000000001</ele><time>2026-03-26T12:16:53Z</time></trkpt><trkpt lat="43.296627252160725" lon="10.802249894285529"><ele>116.00000000000001</ele><time>2026-03-26T12:16:57.999Z</time></trkpt><trkpt lat="43.29655489762855" lon="10.802261687036882"><ele>116.0</ele><time>2026-03-26T12:17:03.999Z</time></trkpt><trkpt lat="43.29650557106559" lon="10.802328584910299"><ele>116.00000000000001</ele><time>2026-03-26T12:17:10.999Z</time></trkpt><trkpt lat="43.296527374871545" lon="10.80241200866879"><ele>116.00000000000001</ele><time>2026-03-26T12:17:16.999Z</time></trkpt><trkpt lat="43.296597402719" lon="10.802444698356135"><ele>116.0</ele><time>2026-03-26T12:17:23.999Z</time></trkpt><trkpt lat="43.29666969943689" lon="10.802440283234667"><ele>116.00000000000001</ele><time>2026-03-26T12:17:29.999Z</time></trkpt><trkpt lat="43.2967501937689" lon="10.80243360355936"><ele>116.00000000000001</ele><time>2026-03-26T12:17:36.999Z</time></trkpt><trkpt lat="43.296827167405084" lon="10.80241102760096"><ele>116.00000000000001</ele><time>2026-03-26T12:17:43.999Z</time></trkpt><trkpt lat="43.29687853589412" lon="10.802338415613603"><ele>116.0</ele><time>2026-03-26T12:18:22Z</time></trkpt><trkpt lat="43.296918267589525" lon="10.802229284323367"><ele>116.00000000000001</ele><time>2026-03-26T12:18:28Z</time></trkpt><trkpt lat="43.29693695807297" lon="10.8021322401444"><ele>116.00000000000001</ele><time>2026-03-26T12:18:36Z</time></trkpt><trkpt lat="43.29696336017281" lon="10.802051411071183"><ele>116.0</ele><time>2026-03-26T12:18:41Z</time></trkpt><trkpt lat="43.29699923549798" lon="10.801967225322466"><ele>116.00000000000001</ele><time>2026-03-26T12:18:48Z</time></trkpt><trkpt lat="43.29702845434759" lon="10.801889610870766"><ele>116.00000000000001</ele><time>2026-03-26T12:18:54Z</time></trkpt><trkpt lat="43.29707904033789" lon="10.801827637800653"><ele>115.85714285714288</ele><time>2026-03-26T12:19:00.999Z</time></trkpt><trkpt lat="43.2971205004378" lon="10.80176069199687"><ele>115.71428571428572</ele><time>2026-03-26T12:19:05.999Z</time></trkpt><trkpt lat="43.29718382653161" lon="10.801705004311179"><ele>115.57142857142857</ele><time>2026-03-26T12:19:15.999Z</time></trkpt><trkpt lat="43.29725506157727" lon="10.801648690448726"><ele>115.42857142857143</ele><time>2026-03-26T12:19:22.999Z</time></trkpt><trkpt lat="43.297325243136456" lon="10.801663198258254"><ele>115.28571428571428</ele><time>2026-03-26T12:19:29.999Z</time></trkpt><trkpt lat="43.29736128199593" lon="10.80173907236731"><ele>115.14285714285712</ele><time>2026-03-26T12:19:35.999Z</time></trkpt><trkpt lat="43.29737059310115" lon="10.801825994815786"><ele>114.99999999999999</ele><time>2026-03-26T12:19:42.999Z</time></trkpt><trkpt lat="43.297375033531274" lon="10.801921515048221"><ele>114.99999999999999</ele><time>2026-03-26T12:19:48.999Z</time></trkpt><trkpt lat="43.29736654883273" lon="10.802012524622407"><ele>115.0</ele><time>2026-03-26T12:19:53.999Z</time></trkpt><trkpt lat="43.29734573145446" lon="10.80209829056608"><ele>114.99999999999999</ele><time>2026-03-26T12:20:00Z</time></trkpt><trkpt lat="43.297313345676294" lon="10.80218218618292"><ele>114.99999999999999</ele><time>2026-03-26T12:20:06Z</time></trkpt><trkpt lat="43.29725969931075" lon="10.802244090019723"><ele>115.0</ele><time>2026-03-26T12:20:12Z</time></trkpt><trkpt lat="43.29721852965577" lon="10.802316437452731"><ele>114.99999999999999</ele><time>2026-03-26T12:20:17Z</time></trkpt><trkpt lat="43.29716586176762" lon="10.802367686157755"><ele>114.99999999999999</ele><time>2026-03-26T12:20:22Z</time></trkpt><trkpt lat="43.29711527336968" lon="10.802419469505969"><ele>114.99999999999999</ele><time>2026-03-26T12:20:27Z</time></trkpt><trkpt lat="43.29707468760996" lon="10.80248578976753"><ele>115.0</ele><time>2026-03-26T12:20:32Z</time></trkpt><trkpt lat="43.29703468365459" lon="10.802568609290535"><ele>114.99999999999999</ele><time>2026-03-26T12:20:37Z</time></trkpt><trkpt lat="43.29702148753174" lon="10.802654940767502"><ele>114.99999999999999</ele><time>2026-03-26T12:20:43Z</time></trkpt><trkpt lat="43.297047576028305" lon="10.802746080555897"><ele>115.0</ele><time>2026-03-26T12:20:49Z</time></trkpt><trkpt lat="43.2970724191746" lon="10.802829278325744"><ele>114.99999999999999</ele><time>2026-03-26T12:20:53.999Z</time></trkpt><trkpt lat="43.29712417442814" lon="10.80289419954916"><ele>114.99999999999999</ele><time>2026-03-26T12:20:59.999Z</time></trkpt><trkpt lat="43.297174681778365" lon="10.80297304067764"><ele>114.99999999999999</ele><time>2026-03-26T12:21:05.999Z</time></trkpt><trkpt lat="43.29722569841849" lon="10.803037387376563"><ele>115.0</ele><time>2026-03-26T12:21:11.999Z</time></trkpt><trkpt lat="43.29728056111849" lon="10.803095010617653"><ele>114.99999999999999</ele><time>2026-03-26T12:21:17.999Z</time></trkpt><trkpt lat="43.29733596063839" lon="10.80314015226329"><ele>114.99999999999999</ele><time>2026-03-26T12:21:22.999Z</time></trkpt><trkpt lat="43.29740506907409" lon="10.803136578628136"><ele>115.0</ele><time>2026-03-26T12:21:28.999Z</time></trkpt><trkpt lat="43.2974178971566" lon="10.803041723039517"><ele>114.99999999999999</ele><time>2026-03-26T12:21:35.999Z</time></trkpt><trkpt lat="43.297380608124946" lon="10.802969841773539"><ele>114.99999999999999</ele><time>2026-03-26T12:21:41.999Z</time></trkpt><trkpt lat="43.29732824968868" lon="10.802905535660761"><ele>114.7142857142857</ele><time>2026-03-26T12:21:47.999Z</time></trkpt><trkpt lat="43.29727936285746" lon="10.802836662193705"><ele>114.42857142857142</ele><time>2026-03-26T12:21:53.999Z</time></trkpt><trkpt lat="43.2972595849246" lon="10.802752804472082"><ele>114.14285714285714</ele><time>2026-03-26T12:21:59.999Z</time></trkpt><trkpt lat="43.297324775113054" lon="10.802717594563658"><ele>113.85714285714285</ele><time>2026-03-26T12:22:26Z</time></trkpt><trkpt lat="43.29739241318744" lon="10.80275442112479"><ele>113.57142857142856</ele><time>2026-03-26T12:22:33Z</time></trkpt><trkpt lat="43.29746348417975" lon="10.802805215822447"><ele>113.28571428571429</ele><time>2026-03-26T12:22:38Z</time></trkpt><trkpt lat="43.29751796622691" lon="10.80285305119889"><ele>113.0</ele><time>2026-03-26T12:22:43Z</time></trkpt><trkpt lat="43.29756695418822" lon="10.80292994726965"><ele>113.0</ele><time>2026-03-26T12:22:52Z</time></trkpt><trkpt lat="43.297614221378396" lon="10.802996530671605"><ele>113.0</ele><time>2026-03-26T12:22:57Z</time></trkpt><trkpt lat="43.29764064605689" lon="10.803082288121008"><ele>113.0</ele><time>2026-03-26T12:23:03Z</time></trkpt><trkpt lat="43.29763911316572" lon="10.803180602460058"><ele>113.0</ele><time>2026-03-26T12:23:09Z</time></trkpt><trkpt lat="43.29762480088678" lon="10.803270462911682"><ele>113.0</ele><time>2026-03-26T12:23:14.999Z</time></trkpt><trkpt lat="43.29761670205536" lon="10.803369838550196"><ele>113.0</ele><time>2026-03-26T12:23:19.999Z</time></trkpt><trkpt lat="43.29762088022146" lon="10.803473328818166"><ele>113.0</ele><time>2026-03-26T12:23:25.999Z</time></trkpt><trkpt lat="43.29763171024131" lon="10.803574125765902"><ele>112.85714285714286</ele><time>2026-03-26T12:23:31.999Z</time></trkpt><trkpt lat="43.297598602470195" lon="10.803659279595282"><ele>112.71428571428571</ele><time>2026-03-26T12:23:40.999Z</time></trkpt><trkpt lat="43.29754846568973" lon="10.803724834478954"><ele>112.57142857142857</ele><time>2026-03-26T12:23:46.999Z</time></trkpt><trkpt lat="43.29752912178954" lon="10.803812486483672"><ele>112.42857142857143</ele><time>2026-03-26T12:23:54.999Z</time></trkpt><trkpt lat="43.29758020988487" lon="10.803875403260003"><ele>112.28571428571428</ele><time>2026-03-26T12:24:00.999Z</time></trkpt><trkpt lat="43.297651841697046" lon="10.803908384959303"><ele>112.14285714285714</ele><time>2026-03-26T12:24:07.999Z</time></trkpt><trkpt lat="43.29770552926863" lon="10.803960580179432"><ele>112.0</ele><time>2026-03-26T12:24:14Z</time></trkpt><trkpt lat="43.29776902534307" lon="10.804008152973509"><ele>112.0</ele><time>2026-03-26T12:24:20Z</time></trkpt><trkpt lat="43.297809125410964" lon="10.80407797027731"><ele>112.0</ele><time>2026-03-26T12:24:26Z</time></trkpt><trkpt lat="43.29781111751129" lon="10.804169549591693"><ele>112.0</ele><time>2026-03-26T12:24:32Z</time></trkpt><trkpt lat="43.29784091249796" lon="10.80426144754552"><ele>112.0</ele><time>2026-03-26T12:24:38Z</time></trkpt><trkpt lat="43.29790527280445" lon="10.804283637828691"><ele>112.0</ele><time>2026-03-26T12:24:44Z</time></trkpt><trkpt lat="43.2979412791196" lon="10.804196747991945"><ele>112.0</ele><time>2026-03-26T12:24:50Z</time></trkpt><trkpt lat="43.29797397838516" lon="10.804099534383353"><ele>112.0</ele><time>2026-03-26T12:24:57Z</time></trkpt><trkpt lat="43.29803802498656" lon="10.80404999994968"><ele>111.85714285714286</ele><time>2026-03-26T12:25:03Z</time></trkpt><trkpt lat="43.298098906158145" lon="10.80408062305676"><ele>111.71428571428572</ele><time>2026-03-26T12:25:11Z</time></trkpt><trkpt lat="43.29811780471505" lon="10.804177098913533"><ele>111.57142857142857</ele><time>2026-03-26T12:25:16.999Z</time></trkpt><trkpt lat="43.29811401774146" lon="10.80426597100504"><ele>111.42857142857143</ele><time>2026-03-26T12:25:22.999Z</time></trkpt><trkpt lat="43.29812679359071" lon="10.80436079188637"><ele>111.28571428571429</ele><time>2026-03-26T12:25:28.999Z</time></trkpt><trkpt lat="43.29817809673227" lon="10.804414046241588"><ele>111.14285714285714</ele><time>2026-03-26T12:25:33.999Z</time></trkpt><trkpt lat="43.29822296073437" lon="10.804478068879336"><ele>111.0</ele><time>2026-03-26T12:25:36.999Z</time></trkpt><trkpt lat="43.2982894814934" lon="10.804442028578565"><ele>111.0</ele><time>2026-03-26T12:25:44.999Z</time></trkpt><trkpt lat="43.298358747085715" lon="10.804471058863687"><ele>111.0</ele><time>2026-03-26T12:25:50.999Z</time></trkpt><trkpt lat="43.29842609504719" lon="10.804454191288142"><ele>111.0</ele><time>2026-03-26T12:25:56.999Z</time></trkpt><trkpt lat="43.298401464534194" lon="10.804367383941184"><ele>111.0</ele><time>2026-03-26T12:26:03.999Z</time></trkpt><trkpt lat="43.29834648620754" lon="10.804308931757058"><ele>111.0</ele><time>2026-03-26T12:26:09.999Z</time></trkpt><trkpt lat="43.29829275903143" lon="10.804244294411495"><ele>111.0</ele><time>2026-03-26T12:26:16.999Z</time></trkpt><trkpt lat="43.298272735563245" lon="10.804148019729821"><ele>111.0</ele><time>2026-03-26T12:26:24Z</time></trkpt><trkpt lat="43.29825696381984" lon="10.804056752999422"><ele>111.0</ele><time>2026-03-26T12:26:30Z</time></trkpt><trkpt lat="43.29823725856303" lon="10.803971712439761"><ele>111.0</ele><time>2026-03-26T12:26:35Z</time></trkpt><trkpt lat="43.29821366943336" lon="10.803884874910736"><ele>111.0</ele><time>2026-03-26T12:26:41Z</time></trkpt><trkpt lat="43.29815939214594" lon="10.803824861142536"><ele>111.0</ele><time>2026-03-26T12:26:47Z</time></trkpt><trkpt lat="43.29809747308039" lon="10.803789330766799"><ele>111.0</ele><time>2026-03-26T12:26:52Z</time></trkpt><trkpt lat="43.298030859911115" lon="10.803757892654811"><ele>111.0</ele><time>2026-03-26T12:26:58Z</time></trkpt><trkpt lat="43.297981181037485" lon="10.803689856009301"><ele>111.0</ele><time>2026-03-26T12:27:04Z</time></trkpt><trkpt lat="43.29800616469952" lon="10.803608875665645"><ele>111.0</ele><time>2026-03-26T12:27:09Z</time></trkpt><trkpt lat="43.29807709554156" lon="10.803566167792692"><ele>111.0</ele><time>2026-03-26T12:27:15Z</time></trkpt><trkpt lat="43.29812800095111" lon="10.803513423402705"><ele>111.0</ele><time>2026-03-26T12:27:21Z</time></trkpt><trkpt lat="43.298162481606866" lon="10.80343934620601"><ele>111.0</ele><time>2026-03-26T12:27:28.999Z</time></trkpt><trkpt lat="43.29816855696862" lon="10.803348801377782"><ele>111.0</ele><time>2026-03-26T12:27:34.999Z</time></trkpt><trkpt lat="43.29815131105374" lon="10.803251502659041"><ele>111.0</ele><time>2026-03-26T12:27:40.999Z</time></trkpt><trkpt lat="43.29811308431963" lon="10.803177809430801"><ele>111.0</ele><time>2026-03-26T12:27:45.999Z</time></trkpt><trkpt lat="43.298053789006765" lon="10.8031290166544"><ele>111.28571428571428</ele><time>2026-03-26T12:27:52.999Z</time></trkpt><trkpt lat="43.29797160704221" lon="10.803125294463056"><ele>111.57142857142858</ele><time>2026-03-26T12:27:58.999Z</time></trkpt><trkpt lat="43.297942647339184" lon="10.803206721046443"><ele>111.85714285714286</ele><time>2026-03-26T12:28:04.999Z</time></trkpt><trkpt lat="43.29791972973033" lon="10.803302391740004"><ele>112.14285714285714</ele><time>2026-03-26T12:28:11.999Z</time></trkpt><trkpt lat="43.29787534291623" lon="10.803381743850778"><ele>112.42857142857142</ele><time>2026-03-26T12:28:18.999Z</time></trkpt><trkpt lat="43.29780869377758" lon="10.803339787227328"><ele>112.71428571428572</ele><time>2026-03-26T12:28:25Z</time></trkpt><trkpt lat="43.297800893473735" lon="10.803252081712198"><ele>113.0</ele><time>2026-03-26T12:28:31Z</time></trkpt><trkpt lat="43.29778847150137" lon="10.803154717700554"><ele>113.0</ele><time>2026-03-26T12:28:37Z</time></trkpt><trkpt lat="43.297790009163656" lon="10.803055061995103"><ele>113.0</ele><time>2026-03-26T12:28:58Z</time></trkpt><trkpt lat="43.29775515597745" lon="10.802965964732321"><ele>113.0</ele><time>2026-03-26T12:29:04Z</time></trkpt><trkpt lat="43.29772247582875" lon="10.802879997411804"><ele>113.0</ele><time>2026-03-26T12:29:10Z</time></trkpt><trkpt lat="43.29768357445882" lon="10.802794687779688"><ele>113.0</ele><time>2026-03-26T12:29:16Z</time></trkpt><trkpt lat="43.29764191583609" lon="10.802724069775927"><ele>113.0</ele><time>2026-03-26T12:29:22Z</time></trkpt><trkpt lat="43.29759698457237" lon="10.802640116281175"><ele>113.0</ele><time>2026-03-26T12:29:28Z</time></trkpt><trkpt lat="43.29755811937783" lon="10.80255380658834"><ele>113.28571428571429</ele><time>2026-03-26T12:29:33.999Z</time></trkpt><trkpt lat="43.297528193344554" lon="10.80245983497287"><ele>113.57142857142856</ele><time>2026-03-26T12:29:40.999Z</time></trkpt><trkpt lat="43.29752064405697" lon="10.80237051453887"><ele>113.85714285714285</ele><time>2026-03-26T12:29:46.999Z</time></trkpt><trkpt lat="43.297513665225" lon="10.802275954946971"><ele>114.14285714285714</ele><time>2026-03-26T12:29:52.999Z</time></trkpt><trkpt lat="43.29752370346955" lon="10.802181843469983"><ele>114.42857142857142</ele><time>2026-03-26T12:29:58.999Z</time></trkpt><trkpt lat="43.29756273745633" lon="10.802111789098928"><ele>114.7142857142857</ele><time>2026-03-26T12:30:04.999Z</time></trkpt><trkpt lat="43.297629685732815" lon="10.802131060976079"><ele>114.99999999999999</ele><time>2026-03-26T12:30:09.999Z</time></trkpt><trkpt lat="43.29767808217043" lon="10.802200582480788"><ele>114.99999999999999</ele><time>2026-03-26T12:30:15.999Z</time></trkpt><trkpt lat="43.297703469331076" lon="10.802284671539129"><ele>115.0</ele><time>2026-03-26T12:30:20.999Z</time></trkpt><trkpt lat="43.29773120291796" lon="10.802384208715235"><ele>114.99999999999999</ele><time>2026-03-26T12:30:25.999Z</time></trkpt><trkpt lat="43.297771936853664" lon="10.802460119158523"><ele>114.99999999999999</ele><time>2026-03-26T12:30:33Z</time></trkpt><trkpt lat="43.29780765444737" lon="10.802543608317613"><ele>115.0</ele><time>2026-03-26T12:30:39Z</time></trkpt><trkpt lat="43.297846818293344" lon="10.802629154635866"><ele>114.99999999999999</ele><time>2026-03-26T12:30:45Z</time></trkpt><trkpt lat="43.29789075502036" lon="10.802695305508792"><ele>114.99999999999999</ele><time>2026-03-26T12:30:50Z</time></trkpt><trkpt lat="43.29794807247107" lon="10.802748667292885"><ele>114.99999999999999</ele><time>2026-03-26T12:30:57Z</time></trkpt><trkpt lat="43.298011580675194" lon="10.80277167382509"><ele>115.0</ele><time>2026-03-26T12:31:03Z</time></trkpt><trkpt lat="43.29805315007786" lon="10.802700980724943"><ele>114.99999999999999</ele><time>2026-03-26T12:31:11Z</time></trkpt><trkpt lat="43.29809212178869" lon="10.802631926187305"><ele>114.99999999999999</ele><time>2026-03-26T12:31:17Z</time></trkpt><trkpt lat="43.298094954206825" lon="10.802543865253524"><ele>115.0</ele><time>2026-03-26T12:31:23Z</time></trkpt><trkpt lat="43.29808478120623" lon="10.8024534409725"><ele>114.99999999999999</ele><time>2026-03-26T12:31:27.999Z</time></trkpt><trkpt lat="43.29805329984073" lon="10.802372855685896"><ele>114.99999999999999</ele><time>2026-03-26T12:31:33.999Z</time></trkpt><trkpt lat="43.29802709833506" lon="10.802293927738885"><ele>114.99999999999999</ele><time>2026-03-26T12:31:38.999Z</time></trkpt><trkpt lat="43.29799116275943" lon="10.802218662485682"><ele>115.0</ele><time>2026-03-26T12:31:44.999Z</time></trkpt><trkpt lat="43.29793687914098" lon="10.802149824899073"><ele>114.99999999999999</ele><time>2026-03-26T12:31:49.999Z</time></trkpt><trkpt lat="43.297881948905854" lon="10.802091697865189"><ele>114.99999999999999</ele><time>2026-03-26T12:31:55.999Z</time></trkpt><trkpt lat="43.297847034320846" lon="10.80201175685884"><ele>115.0</ele><time>2026-03-26T12:32:01.999Z</time></trkpt><trkpt lat="43.29782587999582" lon="10.801918690060042"><ele>114.99999999999999</ele><time>2026-03-26T12:32:07.999Z</time></trkpt><trkpt lat="43.29785638603976" lon="10.801838398599775"><ele>114.99999999999999</ele><time>2026-03-26T12:32:12.999Z</time></trkpt><trkpt lat="43.29792363454445" lon="10.801801230771623"><ele>115.57142857142856</ele><time>2026-03-26T12:32:20.999Z</time></trkpt><trkpt lat="43.297986084214365" lon="10.801817392667369"><ele>116.14285714285714</ele><time>2026-03-26T12:32:32.999Z</time></trkpt><trkpt lat="43.29805105275381" lon="10.80180684236293"><ele>116.71428571428571</ele><time>2026-03-26T12:32:39Z</time></trkpt><trkpt lat="43.298100687273696" lon="10.801751350994927"><ele>117.28571428571428</ele><time>2026-03-26T12:32:45Z</time></trkpt><trkpt lat="43.29810459443355" lon="10.80166251100388"><ele>117.85714285714286</ele><time>2026-03-26T12:32:54Z</time></trkpt><trkpt lat="43.29807834621419" lon="10.801580658243692"><ele>118.42857142857143</ele><time>2026-03-26T12:32:59Z</time></trkpt><trkpt lat="43.298019000399705" lon="10.80149834775146"><ele>119.0</ele><time>2026-03-26T12:33:05Z</time></trkpt><trkpt lat="43.29795233892986" lon="10.80146746469321"><ele>119.0</ele><time>2026-03-26T12:33:12Z</time></trkpt><trkpt lat="43.297889733843206" lon="10.801437858057605"><ele>119.0</ele><time>2026-03-26T12:33:17Z</time></trkpt><trkpt lat="43.297826228535115" lon="10.801410108808408"><ele>119.0</ele><time>2026-03-26T12:33:22Z</time></trkpt><trkpt lat="43.297761329480366" lon="10.801398072822327"><ele>119.0</ele><time>2026-03-26T12:33:27Z</time></trkpt><trkpt lat="43.29769226216121" lon="10.801426648014"><ele>119.0</ele><time>2026-03-26T12:33:34.999Z</time></trkpt><trkpt lat="43.29766187569173" lon="10.801515434226388"><ele>119.0</ele><time>2026-03-26T12:33:40.999Z</time></trkpt><trkpt lat="43.29765330759093" lon="10.80160384449808"><ele>119.0</ele><time>2026-03-26T12:33:46.999Z</time></trkpt><trkpt lat="43.29764394716883" lon="10.801704175343154"><ele>119.0</ele><time>2026-03-26T12:33:51.999Z</time></trkpt><trkpt lat="43.29759297809932" lon="10.80177788052263"><ele>119.0</ele><time>2026-03-26T12:33:56.999Z</time></trkpt><trkpt lat="43.29752557211979" lon="10.801738312852605"><ele>119.0</ele><time>2026-03-26T12:34:02.999Z</time></trkpt><trkpt lat="43.297483366087256" lon="10.801660717875425"><ele>119.0</ele><time>2026-03-26T12:34:09.999Z</time></trkpt><trkpt lat="43.29743340403664" lon="10.80160428865314"><ele>119.0</ele><time>2026-03-26T12:34:18.999Z</time></trkpt><trkpt lat="43.29743900503265" lon="10.801504581484812"><ele>119.0</ele><time>2026-03-26T12:34:26.999Z</time></trkpt><trkpt lat="43.29744545713709" lon="10.801405603488462"><ele>119.0</ele><time>2026-03-26T12:34:34.999Z</time></trkpt><trkpt lat="43.29744445686417" lon="10.801316356820653"><ele>119.0</ele><time>2026-03-26T12:34:42Z</time></trkpt><trkpt lat="43.29747286244064" lon="10.801227833177492"><ele>119.0</ele><time>2026-03-26T12:34:48Z</time></trkpt><trkpt lat="43.29748804998038" lon="10.801126601343306"><ele>119.0</ele><time>2026-03-26T12:34:53Z</time></trkpt><trkpt lat="43.29747668479217" lon="10.801038770572342"><ele>119.0</ele><time>2026-03-26T12:35:07Z</time></trkpt><trkpt lat="43.297518262407266" lon="10.80094817888897"><ele>119.0</ele><time>2026-03-26T12:35:12Z</time></trkpt><trkpt lat="43.29758731495198" lon="10.800896365525892"><ele>119.0</ele><time>2026-03-26T12:35:20Z</time></trkpt><trkpt lat="43.297599338000516" lon="10.80080720639515"><ele>119.0</ele><time>2026-03-26T12:35:26Z</time></trkpt><trkpt lat="43.29754498768023" lon="10.800727111900235"><ele>120.57142857142857</ele><time>2026-03-26T12:35:38.999Z</time></trkpt><trkpt lat="43.297476279789585" lon="10.800704104032999"><ele>122.14285714285714</ele><time>2026-03-26T12:35:44.999Z</time></trkpt><trkpt lat="43.297527198213096" lon="10.80063481067446"><ele>123.71428571428572</ele><time>2026-03-26T12:35:51.999Z</time></trkpt><trkpt lat="43.297605714277545" lon="10.800637648534575"><ele>125.28571428571429</ele><time>2026-03-26T12:35:58.999Z</time></trkpt><trkpt lat="43.297672307471906" lon="10.800635651456819"><ele>126.85714285714286</ele><time>2026-03-26T12:36:03.999Z</time></trkpt><trkpt lat="43.29769674974073" lon="10.80072680456706"><ele>128.42857142857144</ele><time>2026-03-26T12:36:09.999Z</time></trkpt><trkpt lat="43.29772594814974" lon="10.800810222506406"><ele>130.0</ele><time>2026-03-26T12:36:34.999Z</time></trkpt><trkpt lat="43.29775209847145" lon="10.800898752367843"><ele>130.00000000000003</ele><time>2026-03-26T12:36:44.999Z</time></trkpt><trkpt lat="43.29779416971914" lon="10.800965858956948"><ele>130.0</ele><time>2026-03-26T12:36:51Z</time></trkpt><trkpt lat="43.2978367303039" lon="10.801032130198855"><ele>130.0</ele><time>2026-03-26T12:36:56Z</time></trkpt><trkpt lat="43.29787888037794" lon="10.801100823486127"><ele>130.0</ele><time>2026-03-26T12:37:02Z</time></trkpt><trkpt lat="43.29793912052846" lon="10.801166997122111"><ele>130.0</ele><time>2026-03-26T12:37:08Z</time></trkpt><trkpt lat="43.29800534620594" lon="10.801214593906508"><ele>130.00000000000003</ele><time>2026-03-26T12:37:14Z</time></trkpt><trkpt lat="43.29807178561341" lon="10.801208841626229"><ele>130.0</ele><time>2026-03-26T12:37:19Z</time></trkpt><trkpt lat="43.29813047036896" lon="10.801167883013305"><ele>130.00000000000003</ele><time>2026-03-26T12:37:24Z</time></trkpt><trkpt lat="43.2981532332752" lon="10.801083441998763"><ele>130.0</ele><time>2026-03-26T12:37:29Z</time></trkpt><trkpt lat="43.29814526215154" lon="10.800986541772408"><ele>130.0</ele><time>2026-03-26T12:37:34Z</time></trkpt><trkpt lat="43.29809963302753" lon="10.800899469718894"><ele>130.0</ele><time>2026-03-26T12:37:40Z</time></trkpt><trkpt lat="43.29805547392851" lon="10.800835401614114"><ele>130.0</ele><time>2026-03-26T12:37:45Z</time></trkpt><trkpt lat="43.297997498008" lon="10.80076789976391"><ele>130.00000000000003</ele><time>2026-03-26T12:37:50.999Z</time></trkpt><trkpt lat="43.29794229686224" lon="10.8007169496704"><ele>130.0</ele><time>2026-03-26T12:37:56.999Z</time></trkpt><trkpt lat="43.29788685730993" lon="10.800658477816338"><ele>130.00000000000003</ele><time>2026-03-26T12:38:02.999Z</time></trkpt><trkpt lat="43.29785794820741" lon="10.800564719693016"><ele>130.0</ele><time>2026-03-26T12:38:08.999Z</time></trkpt><trkpt lat="43.29783700451249" lon="10.800467087809595"><ele>130.0</ele><time>2026-03-26T12:38:15.999Z</time></trkpt><trkpt lat="43.29783409880356" lon="10.800359219002333"><ele>130.0</ele><time>2026-03-26T12:38:21.999Z</time></trkpt><trkpt lat="43.29783083579852" lon="10.800262823326612"><ele>130.0</ele><time>2026-03-26T12:38:27.999Z</time></trkpt><trkpt lat="43.29781751493633" lon="10.800174127102933"><ele>130.00000000000003</ele><time>2026-03-26T12:38:32.999Z</time></trkpt><trkpt lat="43.297808316771636" lon="10.800077001413001"><ele>130.0</ele><time>2026-03-26T12:38:39.999Z</time></trkpt><trkpt lat="43.29778834129553" lon="10.799978478028152"><ele>130.42857142857144</ele><time>2026-03-26T12:38:45.999Z</time></trkpt><trkpt lat="43.29774964224203" lon="10.799908878462931"><ele>130.85714285714286</ele><time>2026-03-26T12:38:51.999Z</time></trkpt><trkpt lat="43.29770108294633" lon="10.799850036029307"><ele>131.28571428571428</ele><time>2026-03-26T12:38:58Z</time></trkpt><trkpt lat="43.29763408255275" lon="10.7998560177328"><ele>131.71428571428572</ele><time>2026-03-26T12:39:04Z</time></trkpt><trkpt lat="43.29758134960928" lon="10.799929547613969"><ele>132.14285714285714</ele><time>2026-03-26T12:39:23Z</time></trkpt><trkpt lat="43.29752311910773" lon="10.799994866246625"><ele>132.57142857142858</ele><time>2026-03-26T12:39:30Z</time></trkpt><trkpt lat="43.29745562683076" lon="10.799986424179865"><ele>133.0</ele><time>2026-03-26T12:39:35Z</time></trkpt><trkpt lat="43.29740985997298" lon="10.799911157958396"><ele>133.0</ele><time>2026-03-26T12:39:44Z</time></trkpt><trkpt lat="43.297416280820855" lon="10.800006357104165"><ele>133.0</ele><time>2026-03-26T12:42:55.999Z</time></trkpt><trkpt lat="43.29739118083617" lon="10.799916207113382"><ele>133.0</ele><time>2026-03-26T12:43:09Z</time></trkpt><trkpt lat="43.29738022496787" lon="10.799826844640213"><ele>133.0</ele><time>2026-03-26T12:43:14Z</time></trkpt><trkpt lat="43.297408858725106" lon="10.799749141358367"><ele>133.0</ele><time>2026-03-26T12:43:20Z</time></trkpt><trkpt lat="43.297469309819" lon="10.79970184228259"><ele>133.0</ele><time>2026-03-26T12:43:34Z</time></trkpt><trkpt lat="43.297532411550534" lon="10.799638603544832"><ele>133.0</ele><time>2026-03-26T12:43:39Z</time></trkpt><trkpt lat="43.29758032039802" lon="10.799581041473363"><ele>133.0</ele><time>2026-03-26T12:43:46Z</time></trkpt><trkpt lat="43.297633271830506" lon="10.799491890864939"><ele>133.0</ele><time>2026-03-26T12:43:51.999Z</time></trkpt><trkpt lat="43.297673169507846" lon="10.799408446148156"><ele>133.0</ele><time>2026-03-26T12:43:57.999Z</time></trkpt><trkpt lat="43.29769224347383" lon="10.799325587994357"><ele>133.0</ele><time>2026-03-26T12:44:02.999Z</time></trkpt><trkpt lat="43.29765413812679" lon="10.79924131370264"><ele>133.0</ele><time>2026-03-26T12:44:08.999Z</time></trkpt><trkpt lat="43.297586937796076" lon="10.799207179894772"><ele>133.0</ele><time>2026-03-26T12:44:14.999Z</time></trkpt><trkpt lat="43.29752337032395" lon="10.799221882966568"><ele>133.0</ele><time>2026-03-26T12:44:20.999Z</time></trkpt><trkpt lat="43.29747805185424" lon="10.79929163108437"><ele>133.0</ele><time>2026-03-26T12:44:25.999Z</time></trkpt><trkpt lat="43.297436310604745" lon="10.799359471960086"><ele>133.0</ele><time>2026-03-26T12:44:32.999Z</time></trkpt><trkpt lat="43.29741454691433" lon="10.799449644638429"><ele>133.0</ele><time>2026-03-26T12:44:38.999Z</time></trkpt><trkpt lat="43.29738336663447" lon="10.799528838945108"><ele>133.0</ele><time>2026-03-26T12:44:43.999Z</time></trkpt><trkpt lat="43.2973534369622" lon="10.799618500390622"><ele>133.0</ele><time>2026-03-26T12:44:53.999Z</time></trkpt><trkpt lat="43.29729958213183" lon="10.799675310089949"><ele>133.0</ele><time>2026-03-26T12:45:01.999Z</time></trkpt><trkpt lat="43.29722808710252" lon="10.799688222954385"><ele>133.0</ele><time>2026-03-26T12:45:07.999Z</time></trkpt><trkpt lat="43.29715560723804" lon="10.799681894373549"><ele>134.42857142857142</ele><time>2026-03-26T12:45:14Z</time></trkpt><trkpt lat="43.29710042277267" lon="10.799635513757606"><ele>135.85714285714286</ele><time>2026-03-26T12:45:24Z</time></trkpt><trkpt lat="43.297044783827154" lon="10.799581317915019"><ele>137.28571428571428</ele><time>2026-03-26T12:45:30Z</time></trkpt><trkpt lat="43.297000322987124" lon="10.7994897933454"><ele>138.71428571428572</ele><time>2026-03-26T12:45:36Z</time></trkpt><trkpt lat="43.29695833409592" lon="10.799411767677249"><ele>140.14285714285714</ele><time>2026-03-26T12:45:42Z</time></trkpt><trkpt lat="43.29691550985703" lon="10.799341152633998"><ele>141.57142857142856</ele><time>2026-03-26T12:45:48Z</time></trkpt><trkpt lat="43.29687634797536" lon="10.7992660541936"><ele>143.0</ele><time>2026-03-26T12:45:55Z</time></trkpt><trkpt lat="43.29680473575428" lon="10.799266635452161"><ele>142.99999999999997</ele><time>2026-03-26T12:46:02Z</time></trkpt><trkpt lat="43.29675618433236" lon="10.799344325164029"><ele>143.0</ele><time>2026-03-26T12:46:10Z</time></trkpt><trkpt lat="43.29674426310855" lon="10.799444377446852"><ele>143.0</ele><time>2026-03-26T12:46:16.999Z</time></trkpt><trkpt lat="43.29668861110431" lon="10.799495703229892"><ele>143.0</ele><time>2026-03-26T12:46:22.999Z</time></trkpt><trkpt lat="43.2966500101429" lon="10.799410226223122"><ele>143.0</ele><time>2026-03-26T12:46:29.999Z</time></trkpt><trkpt lat="43.29663237261802" lon="10.799305511117717"><ele>142.99999999999997</ele><time>2026-03-26T12:46:35.999Z</time></trkpt><trkpt lat="43.29662793931016" lon="10.799216432767968"><ele>143.0</ele><time>2026-03-26T12:46:41.999Z</time></trkpt><trkpt lat="43.2966221316717" lon="10.799121488084452"><ele>143.85714285714283</ele><time>2026-03-26T12:46:46.999Z</time></trkpt><trkpt lat="43.29662383185127" lon="10.799029714823387"><ele>144.71428571428572</ele><time>2026-03-26T12:46:52.999Z</time></trkpt><trkpt lat="43.29664663468691" lon="10.79894856433524"><ele>145.57142857142856</ele><time>2026-03-26T12:46:59.999Z</time></trkpt><trkpt lat="43.296717791685644" lon="10.798982548101517"><ele>146.42857142857142</ele><time>2026-03-26T12:47:11.999Z</time></trkpt><trkpt lat="43.29678685040339" lon="10.799024421410195"><ele>147.28571428571428</ele><time>2026-03-26T12:47:18Z</time></trkpt><trkpt lat="43.29686038144319" lon="10.7990613946181"><ele>148.14285714285714</ele><time>2026-03-26T12:47:25Z</time></trkpt><trkpt lat="43.296922919313836" lon="10.79908844933297"><ele>149.0</ele><time>2026-03-26T12:47:31Z</time></trkpt><trkpt lat="43.29698591693242" lon="10.799096582821806"><ele>149.0</ele><time>2026-03-26T12:47:36Z</time></trkpt><trkpt lat="43.29705327674642" lon="10.799090158555149"><ele>149.0</ele><time>2026-03-26T12:47:42Z</time></trkpt><trkpt lat="43.297121757552404" lon="10.799096377699383"><ele>149.0</ele><time>2026-03-26T12:47:48Z</time></trkpt><trkpt lat="43.29719069678686" lon="10.799076095371142"><ele>149.0</ele><time>2026-03-26T12:47:54Z</time></trkpt><trkpt lat="43.29725636841394" lon="10.799056188674795"><ele>149.0</ele><time>2026-03-26T12:48:01Z</time></trkpt><trkpt lat="43.2973008402591" lon="10.798993132610985"><ele>149.0</ele><time>2026-03-26T12:48:06Z</time></trkpt><trkpt lat="43.29731863270146" lon="10.798909294303638"><ele>149.0</ele><time>2026-03-26T12:48:11Z</time></trkpt><trkpt lat="43.29727025648683" lon="10.798850905588328"><ele>149.0</ele><time>2026-03-26T12:48:16.999Z</time></trkpt><trkpt lat="43.2972060532796" lon="10.798857720468746"><ele>149.0</ele><time>2026-03-26T12:48:22.999Z</time></trkpt><trkpt lat="43.29712531433476" lon="10.798887606808606"><ele>149.0</ele><time>2026-03-26T12:48:29.999Z</time></trkpt><trkpt lat="43.29705059413171" lon="10.79889977066242"><ele>149.0</ele><time>2026-03-26T12:48:35.999Z</time></trkpt><trkpt lat="43.29698653144887" lon="10.798913691566826"><ele>149.0</ele><time>2026-03-26T12:48:40.999Z</time></trkpt><trkpt lat="43.29692382011462" lon="10.798882984305667"><ele>149.0</ele><time>2026-03-26T12:48:55.999Z</time></trkpt><trkpt lat="43.29686398610798" lon="10.798825654629375"><ele>149.0</ele><time>2026-03-26T12:49:02.999Z</time></trkpt><trkpt lat="43.29684119744903" lon="10.79873596748228"><ele>149.0</ele><time>2026-03-26T12:49:08.999Z</time></trkpt><trkpt lat="43.29684425107109" lon="10.798643037524714"><ele>149.0</ele><time>2026-03-26T12:49:15.999Z</time></trkpt><trkpt lat="43.296868055520115" lon="10.798551698335855"><ele>149.0</ele><time>2026-03-26T12:49:21.999Z</time></trkpt><trkpt lat="43.296925887661615" lon="10.798484996015711"><ele>149.0</ele><time>2026-03-26T12:49:30Z</time></trkpt><trkpt lat="43.297001037910675" lon="10.798489178189099"><ele>149.0</ele><time>2026-03-26T12:49:38Z</time></trkpt><trkpt lat="43.297064569370335" lon="10.798499237561241"><ele>149.0</ele><time>2026-03-26T12:49:44Z</time></trkpt><trkpt lat="43.29712970989529" lon="10.798514294540013"><ele>149.0</ele><time>2026-03-26T12:49:50Z</time></trkpt><trkpt lat="43.29719700683412" lon="10.79849822406905"><ele>147.42857142857142</ele><time>2026-03-26T12:49:56Z</time></trkpt><trkpt lat="43.29726441355106" lon="10.798452935605411"><ele>145.85714285714283</ele><time>2026-03-26T12:50:02Z</time></trkpt><trkpt lat="43.29733046939234" lon="10.798420747759243"><ele>144.28571428571428</ele><time>2026-03-26T12:50:09Z</time></trkpt><trkpt lat="43.29739506199349" lon="10.79838879568242"><ele>142.71428571428572</ele><time>2026-03-26T12:50:16Z</time></trkpt><trkpt lat="43.29746529347779" lon="10.798410596878446"><ele>141.14285714285717</ele><time>2026-03-26T12:50:23.999Z</time></trkpt><trkpt lat="43.29754167467626" lon="10.798378934053952"><ele>139.57142857142858</ele><time>2026-03-26T12:50:29.999Z</time></trkpt><trkpt lat="43.29758486000884" lon="10.798310356438035"><ele>138.0</ele><time>2026-03-26T12:50:34.999Z</time></trkpt><trkpt lat="43.29752861338917" lon="10.79824763926809"><ele>138.0</ele><time>2026-03-26T12:50:42.999Z</time></trkpt><trkpt lat="43.297455549406926" lon="10.798231127709535"><ele>138.0</ele><time>2026-03-26T12:50:51.999Z</time></trkpt><trkpt lat="43.29738762872719" lon="10.79823092150082"><ele>138.0</ele><time>2026-03-26T12:50:58.999Z</time></trkpt><trkpt lat="43.29732092299487" lon="10.7982206388591"><ele>138.0</ele><time>2026-03-26T12:51:04.999Z</time></trkpt><trkpt lat="43.29725649342779" lon="10.7982232942924"><ele>138.0</ele><time>2026-03-26T12:51:11.999Z</time></trkpt><trkpt lat="43.297178164506896" lon="10.798228993618388"><ele>138.0</ele><time>2026-03-26T12:51:50Z</time></trkpt><trkpt lat="43.29711568997739" lon="10.798197693280638"><ele>138.0</ele><time>2026-03-26T12:51:57Z</time></trkpt><trkpt lat="43.297056384199855" lon="10.798165485283503"><ele>140.28571428571428</ele><time>2026-03-26T12:52:04Z</time></trkpt><trkpt lat="43.29700453339552" lon="10.798111684873037"><ele>142.57142857142858</ele><time>2026-03-26T12:52:12Z</time></trkpt><trkpt lat="43.29697263612144" lon="10.798032451282829"><ele>144.85714285714286</ele><time>2026-03-26T12:52:19Z</time></trkpt><trkpt lat="43.2969560814625" lon="10.797928213350033"><ele>147.14285714285714</ele><time>2026-03-26T12:52:26Z</time></trkpt><trkpt lat="43.29695924669584" lon="10.797836143194269"><ele>149.42857142857144</ele><time>2026-03-26T12:52:33.999Z</time></trkpt><trkpt lat="43.296975197669596" lon="10.79774580748812"><ele>151.71428571428572</ele><time>2026-03-26T12:52:39.999Z</time></trkpt><trkpt lat="43.29702036751571" lon="10.797675374575947"><ele>154.0</ele><time>2026-03-26T12:52:45.999Z</time></trkpt><trkpt lat="43.29708697962631" lon="10.797648826514763"><ele>154.71428571428572</ele><time>2026-03-26T12:52:53.999Z</time></trkpt><trkpt lat="43.2971510683344" lon="10.797637668283054"><ele>155.42857142857144</ele><time>2026-03-26T12:52:58.999Z</time></trkpt><trkpt lat="43.29720548924797" lon="10.797584043470222"><ele>156.14285714285714</ele><time>2026-03-26T12:53:04.999Z</time></trkpt><trkpt lat="43.29719847789301" lon="10.797488719027694"><ele>156.85714285714286</ele><time>2026-03-26T12:53:11.999Z</time></trkpt><trkpt lat="43.297148339742314" lon="10.797430899915943"><ele>157.57142857142858</ele><time>2026-03-26T12:53:17.999Z</time></trkpt><trkpt lat="43.29709873594135" lon="10.79737319760535"><ele>158.28571428571428</ele><time>2026-03-26T12:53:23.999Z</time></trkpt><trkpt lat="43.29703984204037" lon="10.797329181875817"><ele>159.0</ele><time>2026-03-26T12:53:30.999Z</time></trkpt><trkpt lat="43.296976779125316" lon="10.797290961397888"><ele>159.0</ele><time>2026-03-26T12:53:37Z</time></trkpt><trkpt lat="43.29692003399897" lon="10.797228393497447"><ele>159.0</ele><time>2026-03-26T12:53:49Z</time></trkpt><trkpt lat="43.296859896663314" lon="10.797174293196333"><ele>159.0</ele><time>2026-03-26T12:53:54Z</time></trkpt><trkpt lat="43.296787353665046" lon="10.797167296163277"><ele>159.0</ele><time>2026-03-26T12:54:02Z</time></trkpt><trkpt lat="43.29672660015512" lon="10.797206562591667"><ele>159.0</ele><time>2026-03-26T12:54:19Z</time></trkpt><trkpt lat="43.29669270011782" lon="10.79728863185305"><ele>159.0</ele><time>2026-03-26T12:54:26Z</time></trkpt><trkpt lat="43.29665627892718" lon="10.797359987605352"><ele>159.0</ele><time>2026-03-26T12:54:33Z</time></trkpt><trkpt lat="43.29661827029183" lon="10.797438607363405"><ele>159.0</ele><time>2026-03-26T12:54:39.999Z</time></trkpt><trkpt lat="43.2965629901771" lon="10.797524476181291"><ele>159.0</ele><time>2026-03-26T12:54:45.999Z</time></trkpt><trkpt lat="43.29649661390915" lon="10.797543890313666"><ele>159.0</ele><time>2026-03-26T12:54:53.999Z</time></trkpt><trkpt lat="43.296433909126975" lon="10.797515167614106"><ele>159.0</ele><time>2026-03-26T12:54:59.999Z</time></trkpt><trkpt lat="43.29637623366776" lon="10.797465197979701"><ele>159.0</ele><time>2026-03-26T12:55:07.999Z</time></trkpt><trkpt lat="43.29633527644705" lon="10.79738735572559"><ele>159.0</ele><time>2026-03-26T12:55:14.999Z</time></trkpt><trkpt lat="43.2963110476464" lon="10.797296135938442"><ele>159.0</ele><time>2026-03-26T12:55:20.999Z</time></trkpt><trkpt lat="43.29630582471355" lon="10.79719903011674"><ele>159.0</ele><time>2026-03-26T12:55:28.999Z</time></trkpt><trkpt lat="43.29635815306722" lon="10.79713658968592"><ele>159.0</ele><time>2026-03-26T12:55:35.999Z</time></trkpt><trkpt lat="43.296415907563315" lon="10.797093448003457"><ele>159.0</ele><time>2026-03-26T12:55:54Z</time></trkpt><trkpt lat="43.29647643360575" lon="10.797032490279843"><ele>159.0</ele><time>2026-03-26T12:56:00Z</time></trkpt><trkpt lat="43.296515429091215" lon="10.79696099159844"><ele>159.0</ele><time>2026-03-26T12:56:05Z</time></trkpt><trkpt lat="43.296487282298365" lon="10.796876272189015"><ele>159.0</ele><time>2026-03-26T12:56:12Z</time></trkpt><trkpt lat="43.29642100540022" lon="10.796834094410848"><ele>159.0</ele><time>2026-03-26T12:56:19Z</time></trkpt><trkpt lat="43.29635264954057" lon="10.79678353929251"><ele>162.14285714285714</ele><time>2026-03-26T12:56:26Z</time></trkpt><trkpt lat="43.29629461572977" lon="10.796747517354024"><ele>165.2857142857143</ele><time>2026-03-26T12:56:33Z</time></trkpt><trkpt lat="43.296228017656276" lon="10.796706605542527"><ele>168.42857142857144</ele><time>2026-03-26T12:56:40Z</time></trkpt><trkpt lat="43.29616838700767" lon="10.796668297723901"><ele>171.57142857142856</ele><time>2026-03-26T12:56:46.999Z</time></trkpt><trkpt lat="43.296100682125505" lon="10.79662584396529"><ele>174.71428571428572</ele><time>2026-03-26T12:56:52.999Z</time></trkpt><trkpt lat="43.2960411817732" lon="10.796582263132226"><ele>177.85714285714286</ele><time>2026-03-26T12:56:58.999Z</time></trkpt><trkpt lat="43.29598350250061" lon="10.7965452768191"><ele>181.0</ele><time>2026-03-26T12:57:06.999Z</time></trkpt><trkpt lat="43.29592359287084" lon="10.796511215823617"><ele>181.0</ele><time>2026-03-26T12:57:13.999Z</time></trkpt><trkpt lat="43.295860430305815" lon="10.796471157642241"><ele>181.0</ele><time>2026-03-26T12:57:20.999Z</time></trkpt><trkpt lat="43.29579564594182" lon="10.796439398768072"><ele>181.0</ele><time>2026-03-26T12:57:28.999Z</time></trkpt><trkpt lat="43.29572628812286" lon="10.796444135334971"><ele>181.0</ele><time>2026-03-26T12:57:41.999Z</time></trkpt><trkpt lat="43.2956650766908" lon="10.79647741646452"><ele>181.0</ele><time>2026-03-26T12:57:49Z</time></trkpt><trkpt lat="43.2956595947638" lon="10.796569125130711"><ele>181.0</ele><time>2026-03-26T12:57:55Z</time></trkpt><trkpt lat="43.2957192290798" lon="10.79661853311867"><ele>181.0</ele><time>2026-03-26T12:58:02Z</time></trkpt><trkpt lat="43.29578519333875" lon="10.7966128068765"><ele>181.0</ele><time>2026-03-26T12:58:08Z</time></trkpt><trkpt lat="43.29584885905737" lon="10.796653833304667"><ele>181.0</ele><time>2026-03-26T12:58:16Z</time></trkpt><trkpt lat="43.29590869043062" lon="10.796699115240404"><ele>181.0</ele><time>2026-03-26T12:58:23Z</time></trkpt><trkpt lat="43.295943321561936" lon="10.796789888229915"><ele>181.0</ele><time>2026-03-26T12:58:32Z</time></trkpt><trkpt lat="43.29587486713812" lon="10.796838136809285"><ele>181.0</ele><time>2026-03-26T12:58:39Z</time></trkpt><trkpt lat="43.29580858951563" lon="10.79686821856074"><ele>181.0</ele><time>2026-03-26T12:58:45Z</time></trkpt><trkpt lat="43.29574101148196" lon="10.796864400321107"><ele>181.0</ele><time>2026-03-26T12:58:51.999Z</time></trkpt><trkpt lat="43.29567630039325" lon="10.796877138124467"><ele>176.0</ele><time>2026-03-26T12:58:59.999Z</time></trkpt><trkpt lat="43.295610924864405" lon="10.796898273985132"><ele>176.0</ele><time>2026-03-26T12:59:07.999Z</time></trkpt></trkseg></trk></gpx>